createdAt,value
2019-02-04T00:00:20.790Z,1020.11
2019-02-04T00:01:30.008Z,1020.10
2019-02-04T00:02:20.768Z,1020.09
2019-02-04T00:03:20.733Z,1020.09
2019-02-04T00:04:20.728Z,1020.07
2019-02-04T00:05:20.731Z,1020.05
2019-02-04T00:06:20.706Z,1020.06
2019-02-04T00:07:20.689Z,1020.06
2019-02-04T00:08:20.678Z,1020.06
2019-02-04T00:09:20.678Z,1020.03
2019-02-04T00:10:20.693Z,1020.04
2019-02-04T00:11:20.647Z,1019.99
2019-02-04T00:12:20.636Z,1019.97
2019-02-04T00:13:20.624Z,1019.95
2019-02-04T00:14:20.615Z,1019.96
2019-02-04T00:15:30.064Z,1019.96
2019-02-04T00:16:20.594Z,1019.99
2019-02-04T00:17:20.581Z,1019.94
2019-02-04T00:18:20.573Z,1019.96
2019-02-04T00:19:20.568Z,1019.96
2019-02-04T00:20:20.585Z,1020.03
2019-02-04T00:21:20.564Z,1020.01
2019-02-04T00:23:11.977Z,1020.01
2019-02-04T00:24:12.048Z,1020.02
2019-02-04T00:25:11.968Z,1020.00
2019-02-04T00:26:11.939Z,1019.93
2019-02-04T00:27:11.925Z,1019.95
2019-02-04T00:28:11.916Z,1019.93
2019-02-04T00:29:11.902Z,1019.91
2019-02-04T00:30:11.922Z,1019.88
2019-02-04T00:31:11.885Z,1019.87
2019-02-04T00:32:11.873Z,1019.92
2019-02-04T00:33:11.883Z,1019.93
2019-02-04T00:34:11.848Z,1019.92
2019-02-04T00:35:11.869Z,1019.92
2019-02-04T00:36:11.835Z,1019.93
2019-02-04T00:37:11.815Z,1019.92
2019-02-04T00:38:11.805Z,1019.93
2019-02-04T00:39:11.804Z,1019.96
2019-02-04T00:40:11.830Z,1019.96
2019-02-04T00:41:11.786Z,1019.98
2019-02-04T00:42:11.761Z,1020.00
2019-02-04T00:43:11.750Z,1020.02
2019-02-04T00:44:11.747Z,1020.02
2019-02-04T00:45:11.727Z,1020.01
2019-02-04T00:46:11.747Z,1020.01
2019-02-04T00:47:11.710Z,1019.95
2019-02-04T00:48:11.707Z,1019.94
2019-02-04T00:49:11.682Z,1019.89
2019-02-04T00:50:11.675Z,1019.88
2019-02-04T00:51:11.683Z,1019.86
2019-02-04T00:52:11.653Z,1019.86
2019-02-04T00:53:11.748Z,1019.89
2019-02-04T00:54:11.626Z,1019.94
2019-02-04T00:55:11.619Z,1019.93
2019-02-04T00:56:11.628Z,1019.96
2019-02-04T00:57:11.593Z,1020.00
2019-02-04T00:58:11.590Z,1020.03
2019-02-04T00:59:11.577Z,1020.09
2019-02-04T01:00:11.566Z,1020.11
2019-02-04T01:01:11.572Z,1020.17
2019-02-04T01:02:11.543Z,1020.20
2019-02-04T01:03:11.527Z,1020.23
2019-02-04T01:04:11.519Z,1020.20
2019-02-04T01:05:11.506Z,1020.20
2019-02-04T01:06:11.517Z,1020.25
2019-02-04T01:07:11.487Z,1020.21
2019-02-04T01:08:11.472Z,1020.22
2019-02-04T01:09:11.467Z,1020.17
2019-02-04T01:10:11.450Z,1020.25
2019-02-04T01:11:11.473Z,1020.28
2019-02-04T01:12:20.764Z,1020.26
2019-02-04T01:13:11.434Z,1020.26
2019-02-04T01:14:11.405Z,1020.31
2019-02-04T01:15:11.397Z,1020.30
2019-02-04T01:16:11.410Z,1020.37
2019-02-04T01:17:11.380Z,1020.32
2019-02-04T01:18:11.370Z,1020.38
2019-02-04T01:19:19.746Z,1020.38
2019-02-04T01:20:11.340Z,1020.39
2019-02-04T01:21:11.350Z,1020.39
2019-02-04T01:22:11.321Z,1020.43
2019-02-04T01:23:11.310Z,1020.45
2019-02-04T01:24:11.297Z,1020.49
2019-02-04T01:25:11.285Z,1020.48
2019-02-04T01:26:11.300Z,1020.51
2019-02-04T01:27:11.263Z,1020.50
2019-02-04T01:28:11.254Z,1020.51
2019-02-04T01:29:11.242Z,1020.53
2019-02-04T01:30:11.231Z,1020.50
2019-02-04T01:31:11.243Z,1020.54
2019-02-04T01:32:11.228Z,1020.52
2019-02-04T01:33:11.200Z,1020.53
2019-02-04T01:34:11.198Z,1020.53
2019-02-04T01:35:11.197Z,1020.56
2019-02-04T01:36:11.206Z,1020.57
2019-02-04T01:37:11.154Z,1020.63
2019-02-04T01:38:11.160Z,1020.61
2019-02-04T01:39:11.133Z,1020.60
2019-02-04T01:40:11.131Z,1020.61
2019-02-04T01:41:11.136Z,1020.60
2019-02-04T01:42:11.099Z,1020.65
2019-02-04T01:43:11.096Z,1020.68
2019-02-04T01:44:11.081Z,1020.69
2019-02-04T01:45:11.065Z,1020.64
2019-02-04T01:46:11.078Z,1020.72
2019-02-04T01:47:14.595Z,1020.70
2019-02-04T01:48:11.056Z,1020.71
2019-02-04T01:49:11.021Z,1020.72
2019-02-04T01:50:11.009Z,1020.73
2019-02-04T01:51:11.026Z,1020.70
2019-02-04T01:52:11.062Z,1020.72
2019-02-04T01:53:10.980Z,1020.72
2019-02-04T01:54:10.967Z,1020.72
2019-02-04T01:55:10.981Z,1020.76
2019-02-04T01:56:10.979Z,1020.72
2019-02-04T01:57:10.939Z,1020.76
2019-02-04T01:58:10.929Z,1020.80
2019-02-04T01:59:10.910Z,1020.82
2019-02-04T02:00:11.015Z,1020.81
2019-02-04T02:01:10.917Z,1020.78
2019-02-04T02:02:10.878Z,1020.78
2019-02-04T02:03:10.910Z,1020.70
2019-02-04T02:04:10.859Z,1020.67
2019-02-04T02:05:10.845Z,1020.65
2019-02-04T02:06:10.833Z,1020.66
2019-02-04T02:07:10.844Z,1020.63
2019-02-04T02:08:10.816Z,1020.61
2019-02-04T02:09:10.801Z,1020.61
2019-02-04T02:10:10.789Z,1020.63
2019-02-04T02:11:10.792Z,1020.68
2019-02-04T02:12:10.794Z,1020.68
2019-02-04T02:13:10.759Z,1020.67
2019-02-04T02:14:10.758Z,1020.68
2019-02-04T02:15:10.738Z,1020.64
2019-02-04T02:16:10.727Z,1020.66
2019-02-04T02:17:10.735Z,1020.62
2019-02-04T02:18:10.701Z,1020.64
2019-02-04T02:19:10.696Z,1020.55
2019-02-04T02:20:10.686Z,1020.60
2019-02-04T02:21:10.725Z,1020.63
2019-02-04T02:22:10.680Z,1020.63
2019-02-04T02:23:10.648Z,1020.67
2019-02-04T02:24:10.639Z,1020.64
2019-02-04T02:25:10.659Z,1020.65
2019-02-04T02:26:10.616Z,1020.65
2019-02-04T02:27:10.628Z,1020.72
2019-02-04T02:28:10.594Z,1020.68
2019-02-04T02:29:10.581Z,1020.71
2019-02-04T02:30:10.573Z,1020.71
2019-02-04T02:31:10.558Z,1020.73
2019-02-04T02:32:10.570Z,1020.69
2019-02-04T02:33:10.537Z,1020.67
2019-02-04T02:34:10.525Z,1020.66
2019-02-04T02:35:10.519Z,1020.60
2019-02-04T02:36:10.504Z,1020.56
2019-02-04T02:37:10.522Z,1020.50
2019-02-04T02:38:10.488Z,1020.47
2019-02-04T02:39:10.476Z,1020.44
2019-02-04T02:40:10.463Z,1020.48
2019-02-04T02:41:10.449Z,1020.46
2019-02-04T02:42:10.461Z,1020.46
2019-02-04T02:43:11.661Z,1020.48
2019-02-04T02:44:10.415Z,1020.46
2019-02-04T02:45:10.406Z,1020.44
2019-02-04T02:46:10.392Z,1020.47
2019-02-04T02:47:10.404Z,1020.43
2019-02-04T02:48:10.372Z,1020.37
2019-02-04T02:49:10.359Z,1020.41
2019-02-04T02:50:10.350Z,1020.42
2019-02-04T02:51:10.339Z,1020.44
2019-02-04T02:52:10.348Z,1020.44
2019-02-04T02:53:10.317Z,1020.43
2019-02-04T02:54:10.317Z,1020.44
2019-02-04T02:55:10.302Z,1020.45
2019-02-04T02:56:10.291Z,1020.44
2019-02-04T02:57:10.292Z,1020.42
2019-02-04T02:58:10.264Z,1020.48
2019-02-04T02:59:10.249Z,1020.46
2019-02-04T03:00:10.238Z,1020.49
2019-02-04T03:01:10.230Z,1020.47
2019-02-04T03:02:10.243Z,1020.47
2019-02-04T03:03:10.208Z,1020.43
2019-02-04T03:04:10.218Z,1020.44
2019-02-04T03:05:10.182Z,1020.52
2019-02-04T03:06:10.178Z,1020.51
2019-02-04T03:07:10.198Z,1020.56
2019-02-04T03:08:10.155Z,1020.51
2019-02-04T03:09:10.141Z,1020.48
2019-02-04T03:10:10.138Z,1020.43
2019-02-04T03:11:10.120Z,1020.45
2019-02-04T03:12:10.109Z,1020.42
2019-02-04T03:13:10.127Z,1020.40
2019-02-04T03:14:10.092Z,1020.41
2019-02-04T03:15:10.083Z,1020.44
2019-02-04T03:16:10.070Z,1020.42
2019-02-04T03:17:10.170Z,1020.41
2019-02-04T03:18:10.077Z,1020.42
2019-02-04T03:19:10.043Z,1020.39
2019-02-04T03:20:10.022Z,1020.37
2019-02-04T03:21:10.044Z,1020.40
2019-02-04T03:22:10.001Z,1020.46
2019-02-04T03:23:19.249Z,1020.44
2019-02-04T03:24:09.982Z,1020.46
2019-02-04T03:25:09.969Z,1020.51
2019-02-04T03:26:09.955Z,1020.51
2019-02-04T03:27:09.949Z,1020.52
2019-02-04T03:28:09.953Z,1020.50
2019-02-04T03:29:09.923Z,1020.51
2019-02-04T03:30:09.913Z,1020.56
2019-02-04T03:31:09.929Z,1020.52
2019-02-04T03:32:09.893Z,1020.61
2019-02-04T03:33:09.936Z,1020.53
2019-02-04T03:34:09.879Z,1020.54
2019-02-04T03:35:09.872Z,1020.58
2019-02-04T03:36:09.847Z,1020.60
2019-02-04T03:37:09.857Z,1020.62
2019-02-04T03:38:09.863Z,1020.60
2019-02-04T03:39:09.825Z,1020.56
2019-02-04T03:40:09.818Z,1020.64
2019-02-04T03:41:19.038Z,1020.68
2019-02-04T03:42:09.786Z,1020.72
2019-02-04T03:43:09.793Z,1020.71
2019-02-04T03:44:09.771Z,1020.71
2019-02-04T03:45:09.748Z,1020.77
2019-02-04T03:46:09.740Z,1020.78
2019-02-04T03:47:09.740Z,1020.82
2019-02-04T03:48:09.780Z,1020.84
2019-02-04T03:49:09.708Z,1020.84
2019-02-04T03:50:18.931Z,1020.86
2019-02-04T03:51:09.685Z,1020.92
2019-02-04T03:52:09.673Z,1020.88
2019-02-04T03:53:09.683Z,1020.95
2019-02-04T03:54:09.658Z,1020.96
2019-02-04T03:55:09.657Z,1020.94
2019-02-04T03:56:18.984Z,1021.01
2019-02-04T03:57:09.621Z,1020.93
2019-02-04T03:58:09.634Z,1020.97
2019-02-04T03:59:09.600Z,1020.99
2019-02-04T04:00:09.589Z,1021.01
2019-02-04T04:01:09.579Z,1021.00
2019-02-04T04:02:09.565Z,1021.00
2019-02-04T04:03:09.593Z,1021.03
2019-02-04T04:04:09.547Z,1021.03
2019-02-04T04:05:09.530Z,1021.01
2019-02-04T04:06:09.537Z,1021.05
2019-02-04T04:07:09.509Z,1021.01
2019-02-04T04:08:09.522Z,1021.06
2019-02-04T04:09:09.596Z,1021.05
2019-02-04T04:10:09.535Z,1021.09
2019-02-04T04:11:09.466Z,1021.05
2019-02-04T04:12:09.457Z,1021.09
2019-02-04T04:13:09.483Z,1021.03
2019-02-04T04:14:09.434Z,1021.05
2019-02-04T04:15:09.459Z,1021.06
2019-02-04T04:16:09.414Z,1021.05
2019-02-04T04:17:18.628Z,1021.04
2019-02-04T04:18:15.920Z,1021.09
2019-02-04T04:19:09.383Z,1021.05
2019-02-04T04:20:19.000Z,1021.02
2019-02-04T04:21:09.358Z,1021.05
2019-02-04T04:22:09.347Z,1021.00
2019-02-04T04:23:09.366Z,1021.05
2019-02-04T04:24:09.324Z,1021.05
2019-02-04T04:25:09.315Z,1021.05
2019-02-04T04:26:09.302Z,1021.05
2019-02-04T04:27:09.388Z,1021.01
2019-02-04T04:28:18.595Z,1021.00
2019-02-04T04:29:09.283Z,1021.00
2019-02-04T04:30:19.672Z,1020.99
2019-02-04T04:31:09.274Z,1020.92
2019-02-04T04:32:09.238Z,1021.00
2019-02-04T04:33:09.232Z,1021.02
2019-02-04T04:34:09.297Z,1020.96
2019-02-04T04:35:09.205Z,1020.98
2019-02-04T04:36:09.193Z,1021.02
2019-02-04T04:37:09.186Z,1020.97
2019-02-04T04:38:09.173Z,1021.01
2019-02-04T04:39:09.185Z,1021.01
2019-02-04T04:40:18.409Z,1020.97
2019-02-04T04:41:09.138Z,1020.98
2019-02-04T04:42:18.528Z,1021.02
2019-02-04T04:43:09.118Z,1020.96
2019-02-04T04:44:09.130Z,1021.00
2019-02-04T04:45:09.094Z,1020.97
2019-02-04T04:46:09.093Z,1021.00
2019-02-04T04:47:09.075Z,1020.98
2019-02-04T04:48:09.065Z,1020.95
2019-02-04T04:49:09.077Z,1020.92
2019-02-04T04:50:09.042Z,1020.97
2019-02-04T04:51:09.030Z,1020.97
2019-02-04T04:52:09.020Z,1020.92
2019-02-04T04:53:09.010Z,1020.96
2019-02-04T04:54:09.022Z,1020.89
2019-02-04T04:55:09.010Z,1020.97
2019-02-04T04:56:08.977Z,1020.97
2019-02-04T04:57:08.967Z,1020.90
2019-02-04T04:58:08.960Z,1020.91
2019-02-04T04:59:08.969Z,1020.93
2019-02-04T05:00:08.975Z,1020.91
2019-02-04T05:01:08.927Z,1020.88
2019-02-04T05:02:08.918Z,1020.93
2019-02-04T05:03:08.905Z,1020.89
2019-02-04T05:04:08.937Z,1020.92
2019-02-04T05:05:08.895Z,1020.89
2019-02-04T05:06:08.871Z,1020.88
2019-02-04T05:07:08.861Z,1020.88
2019-02-04T05:08:08.848Z,1020.93
2019-02-04T05:09:18.234Z,1020.95
2019-02-04T05:10:18.197Z,1020.91
2019-02-04T05:11:08.813Z,1020.91
2019-02-04T05:12:08.803Z,1020.89
2019-02-04T05:13:08.792Z,1020.85
2019-02-04T05:14:08.806Z,1020.88
2019-02-04T05:15:08.771Z,1020.86
2019-02-04T05:16:08.774Z,1020.82
2019-02-04T05:17:08.747Z,1020.82
2019-02-04T05:18:08.798Z,1020.79
2019-02-04T05:19:08.748Z,1020.82
2019-02-04T05:20:08.724Z,1020.87
2019-02-04T05:21:08.712Z,1020.86
2019-02-04T05:22:08.698Z,1020.82
2019-02-04T05:23:08.681Z,1020.85
2019-02-04T05:24:08.694Z,1020.88
2019-02-04T05:25:08.660Z,1020.85
2019-02-04T05:26:08.654Z,1020.92
2019-02-04T05:27:08.641Z,1020.93
2019-02-04T05:28:09.202Z,1020.90
2019-02-04T05:29:08.646Z,1020.94
2019-02-04T05:30:08.609Z,1020.92
2019-02-04T05:31:08.605Z,1020.90
2019-02-04T05:32:08.582Z,1020.99
2019-02-04T05:33:08.578Z,1020.97
2019-02-04T05:34:08.586Z,1020.99
2019-02-04T05:35:08.551Z,1020.94
2019-02-04T05:36:08.541Z,1020.94
2019-02-04T05:37:08.536Z,1020.94
2019-02-04T05:38:08.517Z,1020.90
2019-02-04T05:39:08.539Z,1020.90
2019-02-04T05:40:08.499Z,1020.97
2019-02-04T05:41:17.866Z,1020.95
2019-02-04T05:42:17.849Z,1021.01
2019-02-04T05:43:08.470Z,1021.06
2019-02-04T05:44:08.464Z,1021.07
2019-02-04T05:45:08.490Z,1021.11
2019-02-04T05:46:08.447Z,1021.08
2019-02-04T05:47:08.429Z,1021.10
2019-02-04T05:48:08.416Z,1021.10
2019-02-04T05:49:08.410Z,1021.08
2019-02-04T05:50:08.407Z,1021.10
2019-02-04T05:51:08.389Z,1021.12
2019-02-04T05:52:08.380Z,1021.20
2019-02-04T05:53:08.362Z,1021.16
2019-02-04T05:54:08.344Z,1021.19
2019-02-04T05:55:08.392Z,1021.18
2019-02-04T05:56:08.332Z,1021.23
2019-02-04T05:57:08.314Z,1021.24
2019-02-04T05:58:08.301Z,1021.26
2019-02-04T05:59:08.313Z,1021.23
2019-02-04T06:00:08.316Z,1021.26
2019-02-04T06:01:08.276Z,1021.25
2019-02-04T06:02:09.460Z,1021.32
2019-02-04T06:03:08.252Z,1021.26
2019-02-04T06:04:08.242Z,1021.30
2019-02-04T06:05:08.263Z,1021.27
2019-02-04T06:06:08.226Z,1021.30
2019-02-04T06:07:08.204Z,1021.25
2019-02-04T06:08:08.202Z,1021.30
2019-02-04T06:09:08.179Z,1021.24
2019-02-04T06:10:08.193Z,1021.29
2019-02-04T06:11:08.176Z,1021.35
2019-02-04T06:12:08.147Z,1021.34
2019-02-04T06:13:08.142Z,1021.31
2019-02-04T06:14:08.125Z,1021.41
2019-02-04T06:15:08.167Z,1021.39
2019-02-04T06:16:08.117Z,1021.36
2019-02-04T06:17:08.095Z,1021.37
2019-02-04T06:18:08.084Z,1021.39
2019-02-04T06:19:08.072Z,1021.42
2019-02-04T06:20:08.081Z,1021.40
2019-02-04T06:21:08.048Z,1021.38
2019-02-04T06:22:08.042Z,1021.33
2019-02-04T06:23:08.030Z,1021.35
2019-02-04T06:24:08.021Z,1021.36
2019-02-04T06:25:08.047Z,1021.37
2019-02-04T06:26:08.003Z,1021.35
2019-02-04T06:27:10.228Z,1021.38
2019-02-04T06:28:07.979Z,1021.39
2019-02-04T06:29:07.994Z,1021.35
2019-02-04T06:30:07.972Z,1021.42
2019-02-04T06:31:07.941Z,1021.36
2019-02-04T06:32:07.933Z,1021.36
2019-02-04T06:33:07.921Z,1021.32
2019-02-04T06:34:07.908Z,1021.31
2019-02-04T06:35:07.927Z,1021.26
2019-02-04T06:36:07.889Z,1021.30
2019-02-04T06:37:07.878Z,1021.33
2019-02-04T06:38:07.865Z,1021.28
2019-02-04T06:39:07.853Z,1021.25
2019-02-04T06:40:07.918Z,1021.27
2019-02-04T06:41:16.087Z,1021.30
2019-02-04T06:42:07.823Z,1021.26
2019-02-04T06:43:07.809Z,1021.32
2019-02-04T06:44:17.046Z,1021.32
2019-02-04T06:45:07.790Z,1021.33
2019-02-04T06:46:07.798Z,1021.27
2019-02-04T06:47:07.769Z,1021.31
2019-02-04T06:48:07.754Z,1021.28
2019-02-04T06:49:12.430Z,1021.31
2019-02-04T06:50:07.734Z,1021.28
2019-02-04T06:51:07.761Z,1021.27
2019-02-04T06:52:07.745Z,1021.34
2019-02-04T06:53:07.704Z,1021.36
2019-02-04T06:54:07.690Z,1021.32
2019-02-04T06:55:07.683Z,1021.31
2019-02-04T06:56:07.692Z,1021.29
2019-02-04T06:57:07.656Z,1021.28
2019-02-04T06:58:07.650Z,1021.31
2019-02-04T06:59:07.636Z,1021.31
2019-02-04T07:00:07.652Z,1021.27
2019-02-04T07:01:07.636Z,1021.30
2019-02-04T07:02:07.608Z,1021.25
2019-02-04T07:03:07.679Z,1021.34
2019-02-04T07:04:07.584Z,1021.29
2019-02-04T07:05:07.570Z,1021.29
2019-02-04T07:06:07.597Z,1021.28
2019-02-04T07:07:07.547Z,1021.26
2019-02-04T07:08:07.538Z,1021.25
2019-02-04T07:09:07.560Z,1021.27
2019-02-04T07:10:07.514Z,1021.25
2019-02-04T07:11:07.540Z,1021.28
2019-02-04T07:12:07.499Z,1021.24
2019-02-04T07:13:07.484Z,1021.20
2019-02-04T07:14:07.474Z,1021.21
2019-02-04T07:15:07.470Z,1021.22
2019-02-04T07:16:07.632Z,1021.25
2019-02-04T07:17:15.651Z,1021.24
2019-02-04T07:18:07.429Z,1021.23
2019-02-04T07:19:23.958Z,1021.24
2019-02-04T07:20:07.412Z,1021.20
2019-02-04T07:21:07.450Z,1021.21
2019-02-04T07:22:07.385Z,1021.17
2019-02-04T07:23:07.433Z,1021.16
2019-02-04T07:24:07.363Z,1021.19
2019-02-04T07:25:07.352Z,1021.20
2019-02-04T07:26:07.626Z,1021.13
2019-02-04T07:27:07.333Z,1021.23
2019-02-04T07:28:07.350Z,1021.25
2019-02-04T07:29:07.310Z,1021.22
2019-02-04T07:30:07.298Z,1021.18
2019-02-04T07:31:07.379Z,1021.11
2019-02-04T07:32:07.350Z,1021.17
2019-02-04T07:33:07.271Z,1021.20
2019-02-04T07:34:07.254Z,1021.22
2019-02-04T07:35:07.251Z,1021.20
2019-02-04T07:36:07.254Z,1021.20
2019-02-04T07:37:07.225Z,1021.19
2019-02-04T07:38:07.230Z,1021.21
2019-02-04T07:39:07.206Z,1021.18
2019-02-04T07:40:07.191Z,1021.20
2019-02-04T07:41:07.202Z,1021.19
2019-02-04T07:42:07.168Z,1021.17
2019-02-04T07:43:07.156Z,1021.15
2019-02-04T07:44:07.146Z,1021.19
2019-02-04T07:45:07.144Z,1021.17
2019-02-04T07:46:07.156Z,1021.17
2019-02-04T07:47:07.116Z,1021.16
2019-02-04T07:48:07.105Z,1021.17
2019-02-04T07:49:07.091Z,1021.13
2019-02-04T07:50:07.083Z,1021.11
2019-02-04T07:51:07.092Z,1021.14
2019-02-04T07:52:07.059Z,1021.10
2019-02-04T07:53:07.055Z,1021.07
2019-02-04T07:54:07.036Z,1021.15
2019-02-04T07:55:07.026Z,1021.07
2019-02-04T07:56:07.036Z,1021.08
2019-02-04T07:57:07.025Z,1021.11
2019-02-04T07:58:06.994Z,1021.08
2019-02-04T07:59:06.982Z,1021.09
2019-02-04T08:00:06.971Z,1021.04
2019-02-04T08:01:06.967Z,1021.06
2019-02-04T08:02:06.970Z,1021.08
2019-02-04T08:03:06.942Z,1021.06
2019-02-04T08:04:06.928Z,1021.02
2019-02-04T08:05:06.917Z,1021.08
2019-02-04T08:06:06.906Z,1021.01
2019-02-04T08:07:06.917Z,1021.03
2019-02-04T08:08:06.882Z,1020.96
2019-02-04T08:09:06.882Z,1020.99
2019-02-04T08:10:06.861Z,1021.01
2019-02-04T08:11:06.850Z,1021.02
2019-02-04T08:12:06.861Z,1021.03
2019-02-04T08:13:06.829Z,1021.00
2019-02-04T08:14:06.817Z,1021.01
2019-02-04T08:15:06.806Z,1021.02
2019-02-04T08:16:06.795Z,1021.04
2019-02-04T08:17:06.809Z,1021.04
2019-02-04T08:18:06.773Z,1021.08
2019-02-04T08:19:06.761Z,1021.07
2019-02-04T08:20:06.757Z,1021.10
2019-02-04T08:21:06.740Z,1021.04
2019-02-04T08:22:06.757Z,1021.06
2019-02-04T08:23:06.717Z,1021.06
2019-02-04T08:24:06.711Z,1021.06
2019-02-04T08:25:06.698Z,1021.06
2019-02-04T08:26:06.684Z,1021.02
2019-02-04T08:27:06.695Z,1021.06
2019-02-04T08:28:06.666Z,1021.07
2019-02-04T08:29:06.661Z,1021.12
2019-02-04T08:30:06.647Z,1021.16
2019-02-04T08:31:06.628Z,1021.17
2019-02-04T08:32:06.639Z,1021.15
2019-02-04T08:33:06.606Z,1021.14
2019-02-04T08:34:06.599Z,1021.15
2019-02-04T08:35:06.583Z,1021.16
2019-02-04T08:36:06.574Z,1021.26
2019-02-04T08:37:06.589Z,1021.13
2019-02-04T08:38:06.550Z,1021.16
2019-02-04T08:39:06.686Z,1021.17
2019-02-04T08:40:06.531Z,1021.17
2019-02-04T08:41:06.526Z,1021.18
2019-02-04T08:42:06.535Z,1021.27
2019-02-04T08:43:06.497Z,1021.22
2019-02-04T08:44:06.492Z,1021.23
2019-02-04T08:45:06.475Z,1021.27
2019-02-04T08:46:06.464Z,1021.21
2019-02-04T08:47:06.456Z,1021.21
2019-02-04T08:48:06.468Z,1021.22
2019-02-04T08:49:06.430Z,1021.22
2019-02-04T08:50:06.420Z,1021.21
2019-02-04T08:51:06.409Z,1021.17
2019-02-04T08:52:06.395Z,1021.10
2019-02-04T08:53:06.407Z,1021.17
2019-02-04T08:54:06.379Z,1021.10
2019-02-04T08:55:06.370Z,1021.10
2019-02-04T08:56:06.353Z,1021.11
2019-02-04T08:57:06.339Z,1021.04
2019-02-04T08:58:06.351Z,1021.11
2019-02-04T08:59:06.317Z,1021.09
2019-02-04T09:00:06.305Z,1021.09
2019-02-04T09:01:06.299Z,1021.07
2019-02-04T09:02:06.283Z,1021.00
2019-02-04T09:03:06.309Z,1021.02
2019-02-04T09:04:06.274Z,1021.03
2019-02-04T09:05:06.253Z,1020.99
2019-02-04T09:06:06.238Z,1021.03
2019-02-04T09:07:06.228Z,1021.00
2019-02-04T09:08:06.241Z,1021.01
2019-02-04T09:09:06.209Z,1020.95
2019-02-04T09:10:06.197Z,1020.91
2019-02-04T09:11:06.187Z,1020.89
2019-02-04T09:12:06.183Z,1020.87
2019-02-04T09:13:06.182Z,1020.86
2019-02-04T09:14:06.152Z,1020.81
2019-02-04T09:15:06.143Z,1020.79
2019-02-04T09:16:06.128Z,1020.72
2019-02-04T09:17:06.121Z,1020.72
2019-02-04T09:18:06.142Z,1020.72
2019-02-04T09:19:06.097Z,1020.67
2019-02-04T09:20:10.024Z,1020.66
2019-02-04T09:21:06.074Z,1020.62
2019-02-04T09:22:06.060Z,1020.62
2019-02-04T09:23:06.490Z,1020.61
2019-02-04T09:24:06.043Z,1020.63
2019-02-04T09:25:06.035Z,1020.63
2019-02-04T09:26:06.023Z,1020.63
2019-02-04T09:27:06.005Z,1020.58
2019-02-04T09:28:05.997Z,1020.56
2019-02-04T09:29:06.003Z,1020.50
2019-02-04T09:30:05.972Z,1020.54
2019-02-04T09:31:05.963Z,1020.53
2019-02-04T09:32:05.951Z,1020.54
2019-02-04T09:33:05.942Z,1020.48
2019-02-04T09:34:05.950Z,1020.40
2019-02-04T09:35:05.917Z,1020.40
2019-02-04T09:36:05.908Z,1020.41
2019-02-04T09:37:05.894Z,1020.42
2019-02-04T09:38:05.888Z,1020.44
2019-02-04T09:39:05.893Z,1020.41
2019-02-04T09:40:05.866Z,1020.45
2019-02-04T09:41:05.853Z,1020.43
2019-02-04T09:42:05.842Z,1020.39
2019-02-04T09:43:05.830Z,1020.46
2019-02-04T09:44:05.842Z,1020.45
2019-02-04T09:45:05.806Z,1020.46
2019-02-04T09:46:05.802Z,1020.44
2019-02-04T09:47:05.783Z,1020.43
2019-02-04T09:48:05.775Z,1020.39
2019-02-04T09:49:05.782Z,1020.36
2019-02-04T09:50:05.750Z,1020.34
2019-02-04T09:51:05.739Z,1020.31
2019-02-04T09:52:05.728Z,1020.32
2019-02-04T09:53:05.725Z,1020.34
2019-02-04T09:54:05.775Z,1020.33
2019-02-04T09:55:05.703Z,1020.32
2019-02-04T09:56:05.687Z,1020.26
2019-02-04T09:57:05.675Z,1020.27
2019-02-04T09:58:05.660Z,1020.21
2019-02-04T09:59:05.649Z,1020.19
2019-02-04T10:00:05.659Z,1020.22
2019-02-04T10:01:05.628Z,1020.20
2019-02-04T10:02:05.617Z,1020.24
2019-02-04T10:03:05.612Z,1020.18
2019-02-04T10:04:05.599Z,1020.20
2019-02-04T10:05:05.604Z,1020.18
2019-02-04T10:06:05.573Z,1020.18
2019-02-04T10:07:05.566Z,1020.19
2019-02-04T10:08:05.593Z,1020.14
2019-02-04T10:09:05.543Z,1020.15
2019-02-04T10:10:05.549Z,1020.16
2019-02-04T10:11:05.522Z,1020.11
2019-02-04T10:12:05.507Z,1020.13
2019-02-04T10:13:05.502Z,1020.20
2019-02-04T10:14:05.486Z,1020.15
2019-02-04T10:15:05.527Z,1020.15
2019-02-04T10:16:05.489Z,1020.09
2019-02-04T10:17:05.452Z,1020.12
2019-02-04T10:18:05.477Z,1020.07
2019-02-04T10:19:05.447Z,1020.06
2019-02-04T10:20:05.438Z,1020.10
2019-02-04T10:21:05.451Z,1020.06
2019-02-04T10:22:05.397Z,1020.06
2019-02-04T10:23:05.432Z,1019.99
2019-02-04T10:24:05.378Z,1020.02
2019-02-04T10:25:05.425Z,1020.01
2019-02-04T10:26:05.377Z,1019.98
2019-02-04T10:27:05.381Z,1019.98
2019-02-04T10:28:05.382Z,1020.00
2019-02-04T10:29:05.370Z,1020.00
2019-02-04T10:30:05.359Z,1020.03
2019-02-04T10:31:05.341Z,1020.05
2019-02-04T10:32:05.318Z,1020.08
2019-02-04T10:33:05.305Z,1020.03
2019-02-04T10:34:05.264Z,1020.13
2019-02-04T10:35:16.369Z,1020.12
2019-02-04T10:36:05.277Z,1020.12
2019-02-04T10:37:05.228Z,1020.09
2019-02-04T10:38:05.404Z,1020.07
2019-02-04T10:39:05.267Z,1020.05
2019-02-04T10:40:05.241Z,1020.06
2019-02-04T10:41:05.221Z,1020.12
2019-02-04T10:42:05.178Z,1020.09
2019-02-04T10:43:05.227Z,1020.06
2019-02-04T10:44:05.239Z,1020.04
2019-02-04T10:45:05.214Z,1020.04
2019-02-04T10:46:05.311Z,1020.02
2019-02-04T10:47:05.140Z,1020.08
2019-02-04T10:48:05.149Z,1020.15
2019-02-04T10:49:05.130Z,1020.08
2019-02-04T10:50:05.106Z,1020.09
2019-02-04T10:51:05.113Z,1020.11
2019-02-04T10:52:05.082Z,1020.09
2019-02-04T10:53:05.053Z,1020.07
2019-02-04T10:54:05.063Z,1020.02
2019-02-04T10:55:05.135Z,1020.05
2019-02-04T10:56:05.044Z,1020.05
2019-02-04T10:57:05.038Z,1020.09
2019-02-04T10:58:05.001Z,1020.06
2019-02-04T10:59:05.005Z,1020.01
2019-02-04T11:00:05.033Z,1020.07
2019-02-04T11:01:04.983Z,1020.04
2019-02-04T11:02:04.949Z,1020.01
2019-02-04T11:03:04.962Z,1019.97
2019-02-04T11:04:04.931Z,1019.93
2019-02-04T11:05:04.963Z,1019.93
2019-02-04T11:06:04.965Z,1019.93
2019-02-04T11:07:04.942Z,1019.89
2019-02-04T11:08:04.888Z,1019.88
2019-02-04T11:09:04.925Z,1019.86
2019-02-04T11:10:04.909Z,1019.82
2019-02-04T11:11:04.909Z,1019.83
2019-02-04T11:12:04.839Z,1019.80
2019-02-04T11:13:04.960Z,1019.85
2019-02-04T11:14:04.872Z,1019.84
2019-02-04T11:15:04.837Z,1019.84
2019-02-04T11:16:04.863Z,1019.78
2019-02-04T11:17:04.941Z,1019.83
2019-02-04T11:18:04.806Z,1019.79
2019-02-04T11:19:04.761Z,1019.86
2019-02-04T11:20:04.753Z,1019.81
2019-02-04T11:21:04.790Z,1019.82
2019-02-04T11:22:04.756Z,1019.84
2019-02-04T11:23:04.723Z,1019.78
2019-02-04T11:24:04.750Z,1019.65
2019-02-04T11:25:04.694Z,1019.67
2019-02-04T11:26:04.754Z,1019.67
2019-02-04T11:27:04.881Z,1019.73
2019-02-04T11:28:04.660Z,1019.73
2019-02-04T11:29:04.656Z,1019.68
2019-02-04T11:30:04.679Z,1019.72
2019-02-04T11:31:04.721Z,1019.70
2019-02-04T11:32:04.617Z,1019.70
2019-02-04T11:33:04.610Z,1019.72
2019-02-04T11:34:04.629Z,1019.70
2019-02-04T11:35:04.649Z,1019.73
2019-02-04T11:36:04.612Z,1019.71
2019-02-04T11:37:04.600Z,1019.75
2019-02-04T11:38:04.582Z,1019.72
2019-02-04T11:39:04.561Z,1019.75
2019-02-04T11:40:04.545Z,1019.80
2019-02-04T11:41:04.517Z,1019.72
2019-02-04T11:42:04.528Z,1019.67
2019-02-04T11:43:04.535Z,1019.70
2019-02-04T11:44:04.490Z,1019.70
2019-02-04T11:45:04.526Z,1019.70
2019-02-04T11:46:04.516Z,1019.67
2019-02-04T11:47:04.472Z,1019.61
2019-02-04T11:48:04.441Z,1019.61
2019-02-04T11:49:04.431Z,1019.59
2019-02-04T11:50:04.419Z,1019.52
2019-02-04T11:51:09.828Z,1019.63
2019-02-04T11:52:04.417Z,1019.57
2019-02-04T11:53:04.387Z,1019.53
2019-02-04T11:54:04.373Z,1019.55
2019-02-04T11:55:04.360Z,1019.51
2019-02-04T11:56:04.351Z,1019.57
2019-02-04T11:57:04.360Z,1019.55
2019-02-04T11:58:07.582Z,1019.49
2019-02-04T11:59:04.316Z,1019.50
2019-02-04T12:00:04.305Z,1019.47
2019-02-04T12:01:04.296Z,1019.50
2019-02-04T12:02:04.307Z,1019.46
2019-02-04T12:03:04.274Z,1019.44
2019-02-04T12:04:04.262Z,1019.39
2019-02-04T12:05:04.250Z,1019.43
2019-02-04T12:06:04.239Z,1019.42